createdAt,value
2023-04-01T00:01:43.894Z,55.18
2023-04-01T00:04:11.117Z,53.25
2023-04-01T00:06:38.159Z,55.22
2023-04-01T00:09:05.332Z,56.08
2023-04-01T00:11:33.381Z,55.58
2023-04-01T00:14:00.590Z,56.92
2023-04-01T00:16:27.613Z,56.94
2023-04-01T00:18:54.682Z,55.73
2023-04-01T00:21:21.933Z,54.89
2023-04-01T00:23:50.506Z,54.47
2023-04-01T00:26:20.126Z,57.27
2023-04-01T00:28:47.440Z,55.65
2023-04-01T00:31:14.805Z,56.83
2023-04-01T00:33:42.261Z,57.32
2023-04-01T00:36:18.113Z,59.81
2023-04-01T00:38:45.783Z,58.89
2023-04-01T00:41:15.479Z,57.68
2023-04-01T00:43:43.319Z,59.11
2023-04-01T00:46:10.507Z,59.91
2023-04-01T00:48:43.263Z,57.71
2023-04-01T00:51:30.645Z,58.38
2023-04-01T00:53:58.745Z,58.79
2023-04-01T00:56:28.787Z,57.44
2023-04-01T00:58:59.136Z,55.93
2023-04-01T01:01:26.422Z,55.44
2023-04-01T01:03:53.935Z,55.58
2023-04-01T01:06:44.724Z,57.76
2023-04-01T01:09:17.137Z,59.27
2023-04-01T01:11:48.923Z,61.00
2023-04-01T01:14:40.755Z,61.75
2023-04-01T01:17:33.665Z,59.25
2023-04-01T01:20:26.010Z,59.26
2023-04-01T01:23:15.539Z,58.95
2023-04-01T01:25:57.241Z,58.21
2023-04-01T01:28:36.398Z,60.84
2023-04-01T01:31:11.323Z,58.63
2023-04-01T01:33:44.946Z,57.54
2023-04-01T01:36:12.906Z,56.80
2023-04-01T01:38:40.031Z,57.75
2023-04-01T01:41:08.401Z,60.51
2023-04-01T01:43:41.894Z,60.84
2023-04-01T01:46:14.466Z,58.13
2023-04-01T01:48:42.063Z,59.87
2023-04-01T01:51:09.374Z,60.98
2023-04-01T01:53:36.524Z,57.92
2023-04-01T01:56:04.167Z,58.68
2023-04-01T01:58:41.513Z,57.65
2023-04-01T02:01:16.297Z,60.45
2023-04-01T02:03:44.463Z,60.53
2023-04-01T02:06:16.185Z,60.70
2023-04-01T02:08:48.429Z,60.70
2023-04-01T02:11:17.631Z,60.08
2023-04-01T02:13:57.195Z,57.04
2023-04-01T02:16:33.743Z,56.36
2023-04-01T02:19:01.317Z,58.16
2023-04-01T02:21:31.036Z,58.23
2023-04-01T02:23:58.825Z,59.01
2023-04-01T02:26:26.732Z,60.29
2023-04-01T02:28:56.720Z,58.29
2023-04-01T02:31:23.813Z,58.87
2023-04-01T02:33:50.923Z,58.11
2023-04-01T02:36:17.928Z,56.91
2023-04-01T02:38:45.707Z,57.86
2023-04-01T02:41:12.727Z,58.65
2023-04-01T02:43:39.848Z,58.14
2023-04-01T02:46:08.096Z,61.51
2023-04-01T02:48:35.076Z,59.03
2023-04-01T02:51:02.156Z,59.09
2023-04-01T02:53:29.087Z,59.13
2023-04-01T02:55:56.986Z,58.76
2023-04-01T02:58:24.036Z,59.10
2023-04-01T03:00:51.123Z,59.08
2023-04-01T03:03:18.225Z,59.60
2023-04-01T03:05:45.323Z,59.54
2023-04-01T03:08:13.093Z,58.05
2023-04-01T03:10:40.361Z,61.23
2023-04-01T03:13:07.765Z,60.13
2023-04-01T03:15:35.159Z,60.43
2023-04-01T03:18:02.584Z,58.04
2023-04-01T03:20:29.744Z,57.28
2023-04-01T03:22:56.735Z,59.95
2023-04-01T03:25:23.872Z,58.88
2023-04-01T03:27:51.113Z,60.88
2023-04-01T03:30:18.305Z,59.40
2023-04-01T03:32:50.622Z,59.83
2023-04-01T03:35:17.727Z,58.87
2023-04-01T03:37:46.235Z,59.49
2023-04-01T03:40:13.452Z,59.54
2023-04-01T03:42:40.838Z,59.90
2023-04-01T03:45:08.245Z,57.22
2023-04-01T03:47:35.676Z,58.32
2023-04-01T03:50:02.998Z,63.42
2023-04-01T03:52:31.334Z,60.96
2023-04-01T03:54:58.418Z,62.19
2023-04-01T03:57:25.955Z,60.76
2023-04-01T03:59:53.912Z,59.30
2023-04-01T04:02:21.048Z,57.74
2023-04-01T04:04:48.197Z,56.47
2023-04-01T04:07:15.430Z,58.34
2023-04-01T04:10:04.336Z,60.37
2023-04-01T04:12:31.363Z,59.83
2023-04-01T04:14:58.369Z,58.83
2023-04-01T04:17:25.523Z,58.38
2023-04-01T04:19:52.633Z,60.86
2023-04-01T04:22:19.957Z,60.81
2023-04-01T04:24:47.657Z,60.19
2023-04-01T04:27:14.742Z,60.04
2023-04-01T04:29:54.569Z,59.53
2023-04-01T04:32:22.002Z,58.77
2023-04-01T04:34:48.994Z,58.14
2023-04-01T04:37:16.094Z,59.65
2023-04-01T04:39:43.161Z,59.17
2023-04-01T04:42:10.147Z,58.49
2023-04-01T04:44:37.167Z,58.07
2023-04-01T04:47:04.246Z,56.97
2023-04-01T04:49:31.521Z,57.74
2023-04-01T04:51:59.186Z,60.80
2023-04-01T04:54:28.053Z,59.85
2023-04-01T04:56:57.346Z,59.56
2023-04-01T04:59:26.166Z,59.46
2023-04-01T05:02:13.415Z,60.14
2023-04-01T05:04:40.566Z,59.00
2023-04-01T05:07:10.478Z,59.01
2023-04-01T05:09:37.576Z,61.75
2023-04-01T05:12:05.284Z,62.77
2023-04-01T05:14:51.061Z,64.14
2023-04-01T05:17:18.126Z,63.40
2023-04-01T05:19:45.386Z,63.24
2023-04-01T05:22:12.800Z,60.62
2023-04-01T05:24:40.523Z,59.55
2023-04-01T05:27:07.725Z,58.49
2023-04-01T05:29:38.365Z,59.28
2023-04-01T05:32:08.822Z,60.08
2023-04-01T05:34:36.181Z,60.06
2023-04-01T05:37:03.179Z,58.06
2023-04-01T05:39:30.480Z,59.17
2023-04-01T05:41:57.533Z,56.58
2023-04-01T05:44:24.521Z,57.59
2023-04-01T05:47:04.828Z,57.69
2023-04-01T05:49:32.260Z,58.13
2023-04-01T05:51:59.843Z,59.68
2023-04-01T05:54:27.699Z,59.38
2023-04-01T05:56:55.061Z,58.78
2023-04-01T05:59:22.213Z,60.50
2023-04-01T06:01:49.585Z,60.99
2023-04-01T06:04:18.158Z,60.29
2023-04-01T06:06:46.347Z,59.65
2023-04-01T06:09:18.662Z,61.22
2023-04-01T06:12:02.562Z,61.40
2023-04-01T06:14:30.989Z,60.78
2023-04-01T06:17:10.906Z,58.13
2023-04-01T06:20:10.124Z,58.07
2023-04-01T06:22:55.443Z,58.47
2023-04-01T06:25:43.878Z,57.96
2023-04-01T06:28:34.117Z,58.26
2023-04-01T06:31:37.810Z,54.97
2023-04-01T06:34:42.219Z,54.50
2023-04-01T06:37:29.666Z,54.78
2023-04-01T06:40:44.955Z,55.50
2023-04-01T06:43:32.963Z,54.72
2023-04-01T06:46:30.690Z,54.29
2023-04-01T06:49:33.096Z,54.26
2023-04-01T06:53:10.748Z,53.66
2023-04-01T06:56:09.256Z,53.76
2023-04-01T06:58:58.400Z,56.15
2023-04-01T07:01:50.649Z,54.51
2023-04-01T07:04:30.777Z,53.95
2023-04-01T07:07:03.043Z,57.76
2023-04-01T07:09:36.458Z,57.48
2023-04-01T07:12:32.743Z,55.28
2023-04-01T07:15:27.564Z,54.61
2023-04-01T07:18:04.676Z,56.13
2023-04-01T07:20:36.749Z,55.77
2023-04-01T07:23:24.630Z,55.41
2023-04-01T07:26:05.712Z,53.60
2023-04-01T07:28:59.108Z,52.37
2023-04-01T07:31:55.825Z,52.59
2023-04-01T07:34:44.309Z,53.40
2023-04-01T07:37:19.351Z,53.60
2023-04-01T07:39:58.204Z,52.77
2023-04-01T07:42:53.122Z,54.19
2023-04-01T07:45:23.572Z,54.21
2023-04-01T07:47:56.144Z,53.13
2023-04-01T07:50:48.017Z,53.82
2023-04-01T07:53:27.858Z,52.50
2023-04-01T07:56:12.803Z,53.33
2023-04-01T07:59:27.852Z,52.42
2023-04-01T08:02:29.401Z,53.53
2023-04-01T08:05:06.436Z,52.28
2023-04-01T08:07:42.835Z,50.31
2023-04-01T08:10:42.432Z,52.83
2023-04-01T08:13:50.260Z,52.90
2023-04-01T08:16:48.276Z,53.74
2023-04-01T08:19:30.642Z,51.95
2023-04-01T08:22:01.243Z,50.27
2023-04-01T08:24:40.709Z,49.32
2023-04-01T08:27:27.272Z,50.92
2023-04-01T08:30:20.033Z,50.27
2023-04-01T08:32:59.449Z,49.48
2023-04-01T08:35:42.736Z,51.09
2023-04-01T08:38:17.410Z,51.34
2023-04-01T08:40:58.014Z,52.86
2023-04-01T08:43:45.467Z,54.92
2023-04-01T08:46:31.194Z,54.64
2023-04-01T08:49:16.906Z,55.11
2023-04-01T08:51:57.060Z,53.22
2023-04-01T08:54:59.606Z,53.97
2023-04-01T08:58:04.879Z,53.05
2023-04-01T09:00:56.150Z,51.93
2023-04-01T09:03:45.749Z,52.71
2023-04-01T09:06:39.023Z,51.40
2023-04-01T09:09:39.406Z,49.48
2023-04-01T09:12:47.286Z,50.05
2023-04-01T09:15:38.485Z,50.66
2023-04-01T09:18:35.661Z,51.67
2023-04-01T09:21:21.234Z,52.00
2023-04-01T09:24:01.026Z,53.29
2023-04-01T09:26:57.691Z,54.04
2023-04-01T09:29:45.732Z,51.71
2023-04-01T09:32:28.974Z,52.37
2023-04-01T09:35:23.399Z,54.10
2023-04-01T09:37:59.507Z,54.04
2023-04-01T09:40:41.811Z,54.19
2023-04-01T09:43:44.795Z,52.75
2023-04-01T09:46:37.147Z,50.28
2023-04-01T09:49:13.386Z,52.35
2023-04-01T09:51:53.964Z,50.63
2023-04-01T09:54:55.653Z,49.25
2023-04-01T09:57:44.761Z,48.91
2023-04-01T10:00:58.720Z,49.02
2023-04-01T10:03:38.072Z,50.05
2023-04-01T10:06:37.528Z,53.15
2023-04-01T10:09:30.363Z,50.98
2023-04-01T10:12:11.691Z,50.69
2023-04-01T10:14:48.332Z,49.50
2023-04-01T10:17:21.397Z,49.60
2023-04-01T10:20:05.691Z,48.96
2023-04-01T10:23:06.237Z,48.81
2023-04-01T10:25:55.421Z,49.86
2023-04-01T10:28:49.668Z,51.31
2023-04-01T10:31:58.428Z,51.99
2023-04-01T10:35:07.694Z,52.83
2023-04-01T10:37:55.146Z,52.54
2023-04-01T10:40:45.862Z,53.94
2023-04-01T10:44:02.729Z,53.82
2023-04-01T10:46:59.311Z,55.40
2023-04-01T10:49:46.025Z,56.46
2023-04-01T10:52:18.954Z,57.05
2023-04-01T10:55:30.642Z,60.55
2023-04-01T10:58:16.319Z,58.09
2023-04-01T11:01:44.484Z,58.04
2023-04-01T11:04:48.301Z,58.13
2023-04-01T11:08:02.819Z,59.44
2023-04-01T11:10:37.514Z,58.71
2023-04-01T11:13:26.548Z,59.87
2023-04-01T11:16:12.645Z,62.21
2023-04-01T11:19:10.727Z,62.66
2023-04-01T11:21:47.205Z,61.68
2023-04-01T11:24:30.635Z,61.99
2023-04-01T11:27:25.833Z,64.54
2023-04-01T11:30:09.479Z,65.02
2023-04-01T11:32:42.528Z,65.10
2023-04-01T11:35:31.941Z,65.02
2023-04-01T11:38:08.057Z,67.06
2023-04-01T11:40:57.881Z,67.60
2023-04-01T11:44:05.609Z,66.17
2023-04-01T11:47:04.489Z,65.44
2023-04-01T11:49:38.378Z,64.80
2023-04-01T11:52:53.962Z,66.53
2023-04-01T11:55:33.865Z,68.13
2023-04-01T11:58:19.465Z,64.93
2023-04-01T12:01:14.500Z,64.76
2023-04-01T12:03:57.360Z,64.49
2023-04-01T12:06:50.085Z,64.16
2023-04-01T12:10:08.158Z,63.75
2023-04-01T12:12:54.174Z,67.31
2023-04-01T12:15:30.828Z,66.84
2023-04-01T12:18:04.646Z,67.54
2023-04-01T12:20:54.183Z,64.66
2023-04-01T12:23:30.520Z,64.68
2023-04-01T12:26:34.848Z,63.57
2023-04-01T12:29:39.526Z,63.64
2023-04-01T12:32:37.598Z,64.54
2023-04-01T12:35:24.516Z,63.82
2023-04-01T12:38:22.937Z,65.40
2023-04-01T12:41:02.806Z,62.46
2023-04-01T12:43:45.129Z,63.20
2023-04-01T12:46:37.402Z,60.94
2023-04-01T12:49:26.720Z,62.44
2023-04-01T12:52:03.374Z,60.59
2023-04-01T12:55:11.869Z,60.09
2023-04-01T12:57:38.762Z,63.60
2023-04-01T13:00:44.910Z,64.48
2023-04-01T13:03:24.975Z,66.54
2023-04-01T13:06:18.560Z,65.04
2023-04-01T13:09:05.410Z,64.36
2023-04-01T13:11:54.236Z,64.60
2023-04-01T13:14:32.054Z,62.14
2023-04-01T13:16:59.684Z,61.55
2023-04-01T13:19:29.511Z,61.55
2023-04-01T13:22:02.403Z,62.15
2023-04-01T13:24:33.260Z,64.17
2023-04-01T13:27:18.594Z,64.18
2023-04-01T13:30:09.144Z,64.48
2023-04-01T13:35:35.016Z,67.23
2023-04-01T13:38:27.985Z,67.98
2023-04-01T13:41:10.585Z,64.78
2023-04-01T13:43:51.838Z,65.93
2023-04-01T13:46:28.291Z,65.28
2023-04-01T13:49:18.429Z,68.76
2023-04-01T13:52:08.200Z,69.21
2023-04-01T13:54:54.392Z,68.06
2023-04-01T13:57:46.303Z,67.09
2023-04-01T14:00:46.802Z,67.01
2023-04-01T14:05:55.518Z,66.32
2023-04-01T14:08:32.801Z,66.46
2023-04-01T14:11:16.731Z,66.74
2023-04-01T14:14:05.472Z,66.51
2023-04-01T14:16:38.320Z,65.71
2023-04-01T14:19:42.819Z,66.03
2023-04-01T14:22:12.993Z,64.06
2023-04-01T14:25:05.921Z,63.58
2023-04-01T14:27:41.039Z,63.67
2023-04-01T14:30:40.493Z,65.62
2023-04-01T14:34:00.357Z,64.21
2023-04-01T14:36:39.489Z,65.52
2023-04-01T14:39:17.582Z,64.95
2023-04-01T14:41:52.974Z,65.66
2023-04-01T14:44:26.105Z,65.90
2023-04-01T14:47:31.652Z,63.72
2023-04-01T14:50:08.200Z,62.06
2023-04-01T14:52:38.048Z,63.54
2023-04-01T14:55:28.881Z,60.52
2023-04-01T14:58:00.608Z,59.75
2023-04-01T15:00:27.822Z,63.25
2023-04-01T15:03:05.920Z,62.81
2023-04-01T15:05:38.940Z,64.01
2023-04-01T15:08:12.190Z,63.97
2023-04-01T15:11:07.074Z,62.90
2023-04-01T15:13:37.267Z,63.83
2023-04-01T15:16:23.064Z,60.62
2023-04-01T15:18:56.202Z,61.30
2023-04-01T15:21:54.609Z,61.80
2023-04-01T15:24:22.916Z,59.98
2023-04-01T15:27:33.954Z,59.60
2023-04-01T15:30:35.813Z,59.86
2023-04-01T15:33:14.937Z,63.91
2023-04-01T15:35:51.439Z,61.87
2023-04-01T15:38:25.622Z,61.06
2023-04-01T15:41:05.037Z,61.60
2023-04-01T15:43:36.830Z,62.54
2023-04-01T15:46:20.707Z,62.06
2023-04-01T15:49:22.482Z,61.49
2023-04-01T15:52:08.138Z,62.04
2023-04-01T15:54:58.537Z,60.04
2023-04-01T15:57:37.853Z,60.74
2023-04-01T16:00:08.830Z,59.88
2023-04-01T16:03:06.872Z,59.61
2023-04-01T16:05:59.382Z,61.46
2023-04-01T16:08:33.269Z,65.97
2023-04-01T16:11:05.961Z,63.90
2023-04-01T16:14:00.570Z,65.98
2023-04-01T16:16:47.922Z,63.54
2023-04-01T16:19:39.030Z,63.52
2023-04-01T16:22:18.674Z,60.56
2023-04-01T16:24:56.370Z,63.27
2023-04-01T16:27:23.487Z,61.36
2023-04-01T16:29:57.581Z,62.10
2023-04-01T16:32:38.934Z,61.22
2023-04-01T16:35:30.061Z,58.72
2023-04-01T16:38:28.789Z,61.76
2023-04-01T16:41:14.108Z,62.53
2023-04-01T16:44:06.756Z,61.91
2023-04-01T16:46:38.345Z,62.26
2023-04-01T16:49:18.131Z,62.42
2023-04-01T16:51:56.209Z,62.30
2023-04-01T16:54:58.082Z,61.16
2023-04-01T16:57:52.525Z,60.64
2023-04-01T17:00:39.593Z,58.83
2023-04-01T17:03:07.726Z,57.43
2023-04-01T17:05:42.210Z,59.97
2023-04-01T17:08:38.280Z,59.33
2023-04-01T17:11:18.543Z,61.24
2023-04-01T17:14:11.985Z,62.68
2023-04-01T17:17:01.362Z,61.17
2023-04-01T17:19:47.759Z,59.44
2023-04-01T17:22:22.311Z,59.79
2023-04-01T17:25:08.285Z,61.53
2023-04-01T17:27:35.564Z,59.15
2023-04-01T17:30:30.303Z,59.79
2023-04-01T17:33:32.335Z,58.59
2023-04-01T17:36:18.252Z,57.28
2023-04-01T17:39:10.277Z,58.40
2023-04-01T17:42:10.563Z,60.65
2023-04-01T17:44:48.969Z,59.13
2023-04-01T17:47:50.380Z,60.17
2023-04-01T17:50:31.790Z,60.32
2023-04-01T17:53:21.382Z,59.27
2023-04-01T17:56:12.010Z,58.22
2023-04-01T17:59:00.196Z,58.61
2023-04-01T18:02:02.041Z,59.98
2023-04-01T18:04:35.550Z,59.39
2023-04-01T18:07:14.584Z,60.56
2023-04-01T18:10:05.108Z,60.42
2023-04-01T18:12:50.381Z,59.65
2023-04-01T18:15:39.522Z,58.69
2023-04-01T18:18:42.037Z,60.27
2023-04-01T18:21:14.494Z,57.55
2023-04-01T18:24:01.722Z,56.97
2023-04-01T18:26:38.130Z,57.05
2023-04-01T18:29:19.268Z,58.04
2023-04-01T18:31:55.613Z,59.20
2023-04-01T18:34:46.926Z,59.58
2023-04-01T18:37:57.846Z,62.49
2023-04-01T18:40:33.063Z,62.84
2023-04-01T18:43:15.600Z,61.81
2023-04-01T18:45:59.922Z,58.77
2023-04-01T18:48:45.865Z,59.62
2023-04-01T18:51:24.023Z,58.46
2023-04-01T18:53:55.573Z,55.50
2023-04-01T18:56:37.233Z,55.71
2023-04-01T18:59:04.368Z,55.48
2023-04-01T19:01:41.628Z,55.88
2023-04-01T19:04:32.650Z,54.90
2023-04-01T19:07:02.093Z,55.31
2023-04-01T19:09:33.996Z,57.41
2023-04-01T19:12:22.753Z,56.42
2023-04-01T19:14:55.357Z,54.31
2023-04-01T19:17:46.877Z,55.09
2023-04-01T19:20:34.651Z,54.24
2023-04-01T19:23:39.815Z,55.30
2023-04-01T19:26:12.197Z,54.78
2023-04-01T19:29:01.466Z,55.48
2023-04-01T19:31:38.414Z,55.57
2023-04-01T19:34:29.397Z,55.56
2023-04-01T19:37:00.306Z,57.32
2023-04-01T19:39:31.150Z,55.81
2023-04-01T19:42:18.299Z,54.36
2023-04-01T19:45:13.583Z,56.00
2023-04-01T19:48:01.986Z,57.11
2023-04-01T19:50:39.314Z,55.80
2023-04-01T19:53:44.208Z,56.20
2023-04-01T19:56:18.234Z,54.07
2023-04-01T19:59:07.029Z,56.08
2023-04-01T20:01:59.083Z,54.96
2023-04-01T20:04:35.065Z,53.49
2023-04-01T20:07:25.129Z,54.58
2023-04-01T20:10:25.998Z,59.47
2023-04-01T20:13:13.388Z,55.15
2023-04-01T20:15:48.185Z,55.23
2023-04-01T20:18:25.014Z,55.78
2023-04-01T20:20:57.638Z,54.26
2023-04-01T20:23:41.912Z,54.86
2023-04-01T20:26:13.105Z,53.10
2023-04-01T20:28:44.620Z,54.73
2023-04-01T20:31:24.657Z,54.48
2023-04-01T20:34:18.306Z,53.43
2023-04-01T20:36:49.044Z,54.10
2023-04-01T20:39:39.780Z,53.90
2023-04-01T20:42:44.106Z,52.47
2023-04-01T20:45:18.292Z,52.52
2023-04-01T20:47:45.593Z,52.05
2023-04-01T20:50:27.818Z,51.17
2023-04-01T20:53:13.015Z,51.30
2023-04-01T20:56:11.821Z,51.47
2023-04-01T20:58:51.052Z,51.82
2023-04-01T21:01:25.985Z,52.17
2023-04-01T21:04:27.310Z,52.23
2023-04-01T21:07:32.197Z,51.87
2023-04-01T21:10:11.316Z,51.72
2023-04-01T21:12:49.295Z,51.83
2023-04-01T21:15:32.662Z,54.81
2023-04-01T21:18:20.415Z,52.66
2023-04-01T21:21:10.931Z,52.28
2023-04-01T21:23:43.986Z,51.71
2023-04-01T21:26:19.974Z,51.11
2023-04-01T21:29:11.916Z,54.48
2023-04-01T21:32:06.353Z,55.26
2023-04-01T21:34:56.674Z,56.52
2023-04-01T21:37:34.235Z,57.16
2023-04-01T21:40:39.017Z,58.24
2023-04-01T21:43:22.259Z,59.07
2023-04-01T21:46:21.628Z,60.40
2023-04-01T21:49:27.318Z,57.78
2023-04-01T21:52:12.437Z,60.35
2023-04-01T21:54:58.431Z,57.51
2023-04-01T21:57:25.487Z,58.71
2023-04-01T22:00:17.362Z,57.21
2023-04-01T22:03:10.340Z,57.94
2023-04-01T22:06:03.486Z,58.19
2023-04-01T22:08:54.808Z,55.90
2023-04-01T22:11:25.116Z,54.65
2023-04-01T22:13:56.218Z,53.70
2023-04-01T22:16:40.920Z,53.07
2023-04-01T22:19:37.837Z,52.61
2023-04-01T22:22:26.254Z,54.27
2023-04-01T22:25:17.497Z,55.16
2023-04-01T22:28:07.405Z,54.07
2023-04-01T22:30:38.240Z,54.93
2023-04-01T22:33:20.582Z,54.88
2023-04-01T22:36:24.208Z,54.16
2023-04-01T22:39:01.204Z,53.62
2023-04-01T22:42:19.433Z,53.24
2023-04-01T22:45:14.359Z,52.45
2023-04-01T22:47:50.935Z,53.80
2023-04-01T22:50:32.926Z,53.77
2023-04-01T22:53:38.747Z,54.13
2023-04-01T22:56:13.607Z,52.86
2023-04-01T22:58:58.952Z,54.62
2023-04-01T23:01:27.275Z,55.07
2023-04-01T23:03:54.352Z,53.04
2023-04-01T23:06:29.079Z,52.65
2023-04-01T23:09:12.205Z,51.50
2023-04-01T23:11:59.771Z,54.71
2023-04-01T23:14:32.924Z,55.95
2023-04-01T23:17:19.126Z,54.24
2023-04-01T23:19:58.288Z,54.18
2023-04-01T23:22:40.744Z,55.42
2023-04-01T23:25:16.704Z,57.80
2023-04-01T23:28:05.548Z,54.60
2023-04-01T23:30:41.606Z,54.03
2023-04-01T23:33:20.998Z,53.55
2023-04-01T23:35:54.440Z,54.94
2023-04-01T23:38:22.669Z,56.35
2023-04-01T23:40:51.396Z,54.03
2023-04-01T23:43:37.311Z,53.21
2023-04-01T23:46:07.270Z,52.51
2023-04-01T23:48:43.569Z,52.84
2023-04-01T23:52:09.599Z,56.78
2023-04-01T23:54:52.710Z,56.16
2023-04-01T23:57:23.101Z,57.67
